createdAt,value
2024-05-09T00:00:40.005Z,100.00
2024-05-09T00:03:09.843Z,100.00
2024-05-09T00:05:38.658Z,100.00
2024-05-09T00:08:06.632Z,100.00
2024-05-09T00:10:37.235Z,100.00
2024-05-09T00:13:06.977Z,100.00
2024-05-09T00:15:34.652Z,100.00
2024-05-09T00:18:04.131Z,100.00
2024-05-09T00:23:01.514Z,100.00
2024-05-09T00:25:28.257Z,100.00
2024-05-09T00:27:55.018Z,100.00
2024-05-09T00:30:31.036Z,100.00
2024-05-09T00:33:01.604Z,100.00
2024-05-09T00:35:28.769Z,100.00
2024-05-09T00:37:55.639Z,100.00
2024-05-09T00:40:30.922Z,100.00
2024-05-09T00:43:08.100Z,100.00
2024-05-09T00:45:35.818Z,100.00
2024-05-09T00:48:07.052Z,100.00
2024-05-09T00:50:37.766Z,100.00
2024-05-09T00:53:08.166Z,100.00
2024-05-09T00:55:37.908Z,100.00
2024-05-09T00:58:06.076Z,100.00
2024-05-09T01:00:38.918Z,100.00
2024-05-09T01:03:12.821Z,100.00
2024-05-09T01:05:43.745Z,100.00
2024-05-09T01:11:02.087Z,100.00
2024-05-09T01:13:28.807Z,100.00
2024-05-09T01:15:55.749Z,100.00
2024-05-09T01:18:22.630Z,100.00
2024-05-09T01:20:49.436Z,100.00
2024-05-09T01:23:16.767Z,100.00
2024-05-09T01:25:44.805Z,100.00
2024-05-09T01:28:13.587Z,100.00
2024-05-09T01:30:40.531Z,100.00
2024-05-09T01:33:10.479Z,100.00
2024-05-09T01:35:41.681Z,100.00
2024-05-09T01:38:12.171Z,100.00
2024-05-09T01:40:40.496Z,100.00
2024-05-09T01:43:09.997Z,100.00
2024-05-09T01:45:38.553Z,100.00
2024-05-09T01:48:05.993Z,100.00
2024-05-09T01:50:39.206Z,100.00
2024-05-09T01:53:15.009Z,100.00
2024-05-09T01:55:43.523Z,100.00
2024-05-09T01:58:10.606Z,100.00
2024-05-09T02:00:42.400Z,100.00
2024-05-09T02:03:14.575Z,100.00
2024-05-09T02:05:45.774Z,100.00
2024-05-09T02:08:15.242Z,100.00
2024-05-09T02:10:44.188Z,100.00
2024-05-09T02:13:11.383Z,100.00
2024-05-09T02:15:39.206Z,100.00
2024-05-09T02:18:08.405Z,100.00
2024-05-09T02:20:38.381Z,100.00
2024-05-09T02:23:06.632Z,100.00
2024-05-09T02:25:34.152Z,100.00
2024-05-09T02:28:03.349Z,100.00
2024-05-09T02:30:39.326Z,100.00
2024-05-09T02:33:13.729Z,100.00
2024-05-09T02:35:41.882Z,100.00
2024-05-09T02:38:12.520Z,100.00
2024-05-09T02:40:40.415Z,100.00
2024-05-09T02:43:09.605Z,100.00
2024-05-09T02:45:37.888Z,100.00
2024-05-09T02:48:05.377Z,100.00
2024-05-09T02:50:37.957Z,100.00
2024-05-09T02:53:07.623Z,100.00
2024-05-09T02:55:34.877Z,100.00
2024-05-09T02:58:01.733Z,100.00
2024-05-09T03:00:37.161Z,100.00
2024-05-09T03:03:08.962Z,100.00
2024-05-09T03:05:37.499Z,100.00
2024-05-09T03:08:04.808Z,100.00
2024-05-09T03:10:36.170Z,100.00
2024-05-09T03:13:13.378Z,100.00
2024-05-09T03:15:42.021Z,100.00
2024-05-09T03:18:09.285Z,100.00
2024-05-09T03:20:37.236Z,100.00
2024-05-09T03:23:05.725Z,100.00
2024-05-09T03:25:33.240Z,100.00
2024-05-09T03:28:01.306Z,100.00
2024-05-09T03:30:38.954Z,100.00
2024-05-09T03:33:19.155Z,100.00
2024-05-09T03:35:47.700Z,100.00
2024-05-09T03:38:14.789Z,100.00
2024-05-09T03:40:46.685Z,100.00
2024-05-09T03:43:14.800Z,100.00
2024-05-09T03:45:45.510Z,100.00
2024-05-09T03:48:12.897Z,100.00
2024-05-09T03:50:40.178Z,100.00
2024-05-09T03:53:10.661Z,100.00
2024-05-09T03:55:38.012Z,100.00
2024-05-09T03:58:07.986Z,100.00
2024-05-09T04:00:38.736Z,100.00
2024-05-09T04:03:09.694Z,100.00
2024-05-09T04:05:42.865Z,100.00
2024-05-09T04:08:11.167Z,100.00
2024-05-09T04:10:38.252Z,100.00
2024-05-09T04:13:05.508Z,100.00
2024-05-09T04:15:33.301Z,100.00
2024-05-09T04:18:01.275Z,100.00
2024-05-09T04:20:36.554Z,100.00
2024-05-09T04:23:08.638Z,100.00
2024-05-09T04:25:36.072Z,100.00
2024-05-09T04:28:03.277Z,100.00
2024-05-09T04:30:36.736Z,100.00
2024-05-09T04:33:08.507Z,100.00
2024-05-09T04:35:37.562Z,100.00
2024-05-09T04:38:05.180Z,100.00
2024-05-09T04:40:35.255Z,100.00
2024-05-09T04:43:05.297Z,100.00
2024-05-09T04:45:32.335Z,100.00
2024-05-09T04:47:59.460Z,100.00
2024-05-09T04:50:35.404Z,100.00
2024-05-09T04:53:05.816Z,100.00
2024-05-09T04:55:33.586Z,100.00
2024-05-09T04:58:00.331Z,100.00
2024-05-09T05:00:34.753Z,100.00
2024-05-09T05:03:07.213Z,100.00
2024-05-09T05:05:42.408Z,100.00
2024-05-09T05:08:13.946Z,100.00
2024-05-09T05:10:41.986Z,100.00
2024-05-09T05:13:20.384Z,100.00
2024-05-09T05:15:49.594Z,100.00
2024-05-09T05:18:16.862Z,100.00
2024-05-09T05:20:44.711Z,100.00
2024-05-09T05:23:16.504Z,100.00
2024-05-09T05:25:43.610Z,100.00
2024-05-09T05:28:11.339Z,100.00
2024-05-09T05:30:38.620Z,100.00
2024-05-09T05:33:06.817Z,100.00
2024-05-09T05:35:34.487Z,100.00
2024-05-09T05:38:01.728Z,100.00
2024-05-09T05:40:36.140Z,100.00
2024-05-09T05:43:10.299Z,100.00
2024-05-09T05:45:37.923Z,100.00
2024-05-09T05:48:06.387Z,100.00
2024-05-09T05:50:36.830Z,100.00
2024-05-09T05:53:07.068Z,100.00
2024-05-09T05:55:34.579Z,100.00
2024-05-09T05:58:02.009Z,100.00
2024-05-09T06:00:35.002Z,100.00
2024-05-09T06:03:06.055Z,100.00
2024-05-09T06:05:33.149Z,100.00
2024-05-09T06:08:00.255Z,100.00
2024-05-09T06:10:36.990Z,100.00
2024-05-09T06:13:06.689Z,100.00
2024-05-09T06:15:33.398Z,100.00
2024-05-09T06:18:00.497Z,100.00
2024-05-09T06:20:35.055Z,100.00
2024-05-09T06:23:05.176Z,100.00
2024-05-09T06:25:32.232Z,100.00
2024-05-09T06:28:02.010Z,100.00
2024-05-09T06:30:37.800Z,100.00
2024-05-09T06:33:08.954Z,100.00
2024-05-09T06:35:36.813Z,100.00
2024-05-09T06:38:04.072Z,100.00
2024-05-09T06:40:37.294Z,100.00
2024-05-09T06:43:18.076Z,100.00
2024-05-09T06:45:50.364Z,100.00
2024-05-09T06:48:21.569Z,100.00
2024-05-09T06:50:49.683Z,100.00
2024-05-09T06:53:17.497Z,100.00
2024-05-09T06:55:44.533Z,100.00
2024-05-09T06:58:13.511Z,100.00
2024-05-09T07:00:42.422Z,100.00
2024-05-09T07:03:10.352Z,100.00
2024-05-09T07:05:38.070Z,100.00
2024-05-09T07:08:08.995Z,99.77
2024-05-09T07:10:38.404Z,86.18
2024-05-09T07:13:13.778Z,61.41
2024-05-09T07:15:41.752Z,49.88
2024-05-09T07:18:13.203Z,54.13
2024-05-09T07:20:43.657Z,49.25
2024-05-09T07:23:11.893Z,52.60
2024-05-09T07:25:40.056Z,53.70
2024-05-09T07:28:16.030Z,48.75
2024-05-09T07:30:43.430Z,49.89
2024-05-09T07:33:22.753Z,52.00
2024-05-09T07:35:50.900Z,54.94
2024-05-09T07:38:17.978Z,60.82
2024-05-09T07:40:44.923Z,59.61
2024-05-09T07:43:13.105Z,59.02
2024-05-09T07:45:49.891Z,64.80
2024-05-09T07:52:38.554Z,60.82
2024-05-09T07:53:49.716Z,54.85
2024-05-09T07:56:22.176Z,52.14
2024-05-09T07:58:52.123Z,62.53
2024-05-09T08:01:19.923Z,59.78
2024-05-09T08:03:47.260Z,51.70
2024-05-09T08:06:14.336Z,55.65
2024-05-09T08:08:41.161Z,55.65
2024-05-09T08:11:08.064Z,51.59
2024-05-09T08:13:34.818Z,55.32
2024-05-09T08:16:01.736Z,51.67
2024-05-09T08:18:29.089Z,52.99
2024-05-09T08:20:56.017Z,53.12
2024-05-09T08:23:23.913Z,52.72
2024-05-09T08:25:51.150Z,51.53
2024-05-09T08:28:17.962Z,53.14
2024-05-09T08:30:45.206Z,54.53
2024-05-09T08:33:12.446Z,51.30
2024-05-09T08:35:39.336Z,51.32
2024-05-09T08:38:07.541Z,48.55
2024-05-09T08:40:36.779Z,46.53
2024-05-09T08:43:10.470Z,47.45
2024-05-09T08:45:43.254Z,52.46
2024-05-09T08:48:12.866Z,53.36
2024-05-09T08:50:43.284Z,51.87
2024-05-09T08:53:10.363Z,48.95
2024-05-09T08:55:40.059Z,48.96
2024-05-09T08:58:12.615Z,50.76
2024-05-09T09:00:42.351Z,53.84
2024-05-09T09:03:11.547Z,46.36
2024-05-09T09:05:40.659Z,45.70
2024-05-09T09:08:08.944Z,45.75
2024-05-09T09:10:39.558Z,44.98
2024-05-09T09:13:09.773Z,44.58
2024-05-09T09:15:50.657Z,43.90
2024-05-09T09:18:18.577Z,44.92
2024-05-09T09:20:45.788Z,43.68
2024-05-09T09:23:13.106Z,44.19
2024-05-09T09:25:40.688Z,42.81
2024-05-09T09:28:07.899Z,43.70
2024-05-09T09:30:38.676Z,41.58
2024-05-09T09:33:06.655Z,42.77
2024-05-09T09:35:35.865Z,42.87
2024-05-09T09:38:04.771Z,43.89
2024-05-09T09:40:37.592Z,42.43
2024-05-09T09:43:18.190Z,42.38
2024-05-09T09:45:46.572Z,42.75
2024-05-09T09:48:15.052Z,42.30
2024-05-09T09:50:42.607Z,39.37
2024-05-09T09:53:10.022Z,39.89
2024-05-09T09:55:37.834Z,38.53
2024-05-09T09:58:05.863Z,39.92
2024-05-09T10:00:34.662Z,40.16
2024-05-09T10:03:02.628Z,39.81
2024-05-09T10:05:30.306Z,40.32
2024-05-09T10:07:58.627Z,40.33
2024-05-09T10:10:32.192Z,40.54
2024-05-09T10:13:02.954Z,39.81
2024-05-09T10:15:30.692Z,38.92
2024-05-09T10:18:07.869Z,37.65
2024-05-09T10:20:45.048Z,37.28
2024-05-09T10:23:28.948Z,38.51
2024-05-09T10:26:00.396Z,38.16
2024-05-09T10:28:28.471Z,39.37
2024-05-09T10:31:11.432Z,38.49
2024-05-09T10:33:52.692Z,39.50
2024-05-09T10:36:22.368Z,39.11
2024-05-09T10:38:52.129Z,39.82
2024-05-09T10:42:10.716Z,38.47
2024-05-09T10:44:38.980Z,40.16
2024-05-09T10:47:05.867Z,40.50
2024-05-09T10:49:33.742Z,39.06
2024-05-09T10:52:04.307Z,38.63
2024-05-09T10:54:39.287Z,39.91
2024-05-09T10:57:06.770Z,41.28
2024-05-09T10:59:39.375Z,38.66
2024-05-09T11:02:10.330Z,38.48
2024-05-09T11:04:39.953Z,39.29
2024-05-09T11:07:14.864Z,39.62
2024-05-09T11:09:43.253Z,38.90
2024-05-09T11:12:10.846Z,38.12
2024-05-09T11:14:37.781Z,38.44
2024-05-09T11:17:07.059Z,39.74
2024-05-09T11:19:42.008Z,39.76
2024-05-09T11:22:09.146Z,37.29
2024-05-09T11:24:36.170Z,35.41
2024-05-09T11:27:05.268Z,37.14
2024-05-09T11:29:43.337Z,36.54
2024-05-09T11:32:12.243Z,37.05
2024-05-09T11:34:42.030Z,36.29
2024-05-09T11:37:10.130Z,37.85
2024-05-09T11:39:37.178Z,38.77
2024-05-09T11:42:04.666Z,38.99
2024-05-09T11:44:31.394Z,40.92
2024-05-09T11:46:58.722Z,41.16
2024-05-09T11:49:26.911Z,37.06
2024-05-09T11:51:54.068Z,37.99
2024-05-09T11:54:20.820Z,38.28
2024-05-09T11:56:47.575Z,36.73
2024-05-09T11:59:14.336Z,36.43
2024-05-09T12:01:41.658Z,35.85
2024-05-09T12:04:09.176Z,36.34
2024-05-09T12:06:36.217Z,40.28
2024-05-09T12:09:03.109Z,39.22
2024-05-09T12:11:29.879Z,39.62
2024-05-09T12:13:56.591Z,39.09
2024-05-09T12:16:23.683Z,38.99
2024-05-09T12:18:50.876Z,40.54
2024-05-09T12:21:17.858Z,35.48
2024-05-09T12:23:44.781Z,38.24
2024-05-09T12:26:11.707Z,36.84
2024-05-09T12:28:38.478Z,36.19
2024-05-09T12:31:05.362Z,35.75
2024-05-09T12:33:32.687Z,36.56
2024-05-09T12:35:59.787Z,35.15
2024-05-09T12:38:26.738Z,36.04
2024-05-09T12:40:53.816Z,37.56
2024-05-09T12:43:20.754Z,36.59
2024-05-09T12:45:47.837Z,35.12
2024-05-09T12:48:15.828Z,36.43
2024-05-09T12:50:42.777Z,35.28
2024-05-09T12:53:09.929Z,33.82
2024-05-09T12:55:44.316Z,34.16
2024-05-09T12:58:20.092Z,35.19
2024-05-09T13:00:47.487Z,34.36
2024-05-09T13:03:14.963Z,34.60
2024-05-09T13:05:44.981Z,37.49
2024-05-09T13:08:12.835Z,37.80
2024-05-09T13:10:39.762Z,35.80
2024-05-09T13:13:06.712Z,34.25
2024-05-09T13:15:34.949Z,35.75
2024-05-09T13:18:04.085Z,36.67
2024-05-09T13:20:34.163Z,36.10
2024-05-09T13:23:07.280Z,37.37
2024-05-09T13:25:37.787Z,36.41
2024-05-09T13:28:06.127Z,36.74
2024-05-09T13:30:39.514Z,37.95
2024-05-09T13:33:13.944Z,38.16
2024-05-09T13:35:46.849Z,38.91
2024-05-09T13:38:16.959Z,40.28
2024-05-09T13:40:44.064Z,41.97
2024-05-09T13:43:11.206Z,40.86
2024-05-09T13:45:37.937Z,40.15
2024-05-09T13:48:07.106Z,40.85
2024-05-09T13:50:36.338Z,39.23
2024-05-09T13:55:57.948Z,40.99
2024-05-09T13:58:24.995Z,44.03
2024-05-09T14:00:52.131Z,43.21
2024-05-09T14:03:20.431Z,42.24
2024-05-09T14:05:50.212Z,43.70
2024-05-09T14:08:20.082Z,44.37
2024-05-09T14:10:47.931Z,44.60
2024-05-09T14:13:17.100Z,46.16
2024-05-09T14:15:44.341Z,44.38
2024-05-09T14:18:13.984Z,45.91
2024-05-09T14:20:42.199Z,44.04
2024-05-09T14:23:09.197Z,43.19
2024-05-09T14:25:42.826Z,42.65
2024-05-09T14:28:11.937Z,41.49
2024-05-09T14:30:40.703Z,40.79
2024-05-09T14:33:09.059Z,40.56
2024-05-09T14:35:38.380Z,40.99
2024-05-09T14:38:06.790Z,41.96
2024-05-09T14:40:40.746Z,43.67
2024-05-09T14:43:15.427Z,43.88
2024-05-09T14:45:43.728Z,44.50
2024-05-09T14:48:16.499Z,45.32
2024-05-09T14:50:43.648Z,47.90
2024-05-09T14:53:12.176Z,53.40
2024-05-09T14:55:40.782Z,55.09
2024-05-09T14:58:10.199Z,56.60
2024-05-09T15:00:42.417Z,47.81
2024-05-09T15:03:12.037Z,48.66
2024-05-09T15:05:40.461Z,50.89
2024-05-09T15:08:08.830Z,49.55
2024-05-09T15:10:36.964Z,49.09
2024-05-09T15:13:08.037Z,47.00
2024-05-09T15:15:36.774Z,48.93
2024-05-09T15:18:05.702Z,49.96
2024-05-09T15:20:36.638Z,50.23
2024-05-09T15:23:06.411Z,52.84
2024-05-09T15:25:34.888Z,51.06
2024-05-09T15:28:02.288Z,49.08
2024-05-09T15:30:32.187Z,47.49
2024-05-09T15:33:04.163Z,47.00
2024-05-09T15:35:32.409Z,47.11
2024-05-09T15:37:59.411Z,47.94
2024-05-09T15:40:35.445Z,48.15
2024-05-09T15:43:07.137Z,48.26
2024-05-09T15:45:34.879Z,46.68
2024-05-09T15:48:03.254Z,48.73
2024-05-09T15:50:36.715Z,52.20
2024-05-09T15:53:08.213Z,52.64
2024-05-09T15:55:35.852Z,52.80
2024-05-09T15:58:04.151Z,52.79
2024-05-09T16:00:38.930Z,54.19
2024-05-09T16:03:13.136Z,55.98
2024-05-09T16:05:41.662Z,56.70
2024-05-09T16:08:08.916Z,57.93
2024-05-09T16:10:37.041Z,59.80
2024-05-09T16:13:04.725Z,60.52
2024-05-09T16:15:32.185Z,63.04
2024-05-09T16:18:01.421Z,64.90
2024-05-09T16:23:19.373Z,67.56
2024-05-09T16:25:48.477Z,73.76
2024-05-09T16:28:16.546Z,76.03
2024-05-09T16:30:43.500Z,79.27
2024-05-09T16:33:12.921Z,81.60
2024-05-09T16:35:41.068Z,86.62
2024-05-09T16:38:09.541Z,89.22
2024-05-09T16:40:40.127Z,95.08
2024-05-09T16:43:13.122Z,99.10
2024-05-09T16:45:45.249Z,100.00
2024-05-09T16:48:14.187Z,100.00
2024-05-09T16:50:41.597Z,100.00
2024-05-09T16:53:09.266Z,100.00
2024-05-09T16:55:36.913Z,100.00
2024-05-09T16:58:05.105Z,100.00
2024-05-09T17:00:40.434Z,100.00
2024-05-09T17:03:15.287Z,100.00
2024-05-09T17:05:44.122Z,100.00
2024-05-09T17:08:11.659Z,100.00
2024-05-09T17:10:39.057Z,100.00
2024-05-09T17:13:08.406Z,100.00
2024-05-09T17:15:37.393Z,100.00
2024-05-09T17:18:07.261Z,100.00
2024-05-09T17:20:40.651Z,100.00
2024-05-09T17:23:13.955Z,100.00
2024-05-09T17:25:42.042Z,100.00
2024-05-09T17:28:10.983Z,100.00
2024-05-09T17:30:40.367Z,100.00
2024-05-09T17:33:11.715Z,100.00
2024-05-09T17:35:40.404Z,100.00
2024-05-09T17:38:07.865Z,100.00
2024-05-09T17:40:37.192Z,100.00
2024-05-09T17:43:10.832Z,100.00
2024-05-09T17:45:40.356Z,100.00
2024-05-09T17:48:11.376Z,100.00
2024-05-09T17:50:40.735Z,100.00
2024-05-09T17:53:10.944Z,100.00
2024-05-09T17:55:38.230Z,100.00
2024-05-09T17:58:06.062Z,100.00
2024-05-09T18:00:39.413Z,100.00
2024-05-09T18:03:12.446Z,100.00
2024-05-09T18:05:44.281Z,100.00
2024-05-09T18:08:13.090Z,100.00
2024-05-09T18:10:42.226Z,100.00
2024-05-09T18:13:11.239Z,100.00
2024-05-09T18:15:39.338Z,100.00
2024-05-09T18:18:07.083Z,100.00
2024-05-09T18:20:41.938Z,100.00
2024-05-09T18:23:13.979Z,100.00
2024-05-09T18:25:41.422Z,100.00
2024-05-09T18:28:08.316Z,100.00
2024-05-09T18:30:36.839Z,100.00
2024-05-09T18:33:06.698Z,100.00
2024-05-09T18:35:35.058Z,100.00
2024-05-09T18:38:02.085Z,100.00
2024-05-09T18:40:34.499Z,100.00
2024-05-09T18:43:07.157Z,100.00
2024-05-09T18:45:45.465Z,100.00
2024-05-09T18:48:13.818Z,100.00
2024-05-09T18:50:41.654Z,100.00
2024-05-09T18:53:11.770Z,100.00
2024-05-09T18:55:40.019Z,100.00
2024-05-09T18:58:07.292Z,100.00
2024-05-09T19:00:37.770Z,100.00
2024-05-09T19:03:10.477Z,100.00
2024-05-09T19:05:40.741Z,100.00
2024-05-09T19:08:08.292Z,100.00
2024-05-09T19:10:37.584Z,100.00
2024-05-09T19:13:09.147Z,100.00
2024-05-09T19:15:39.751Z,100.00
2024-05-09T19:18:07.574Z,100.00
2024-05-09T19:20:36.606Z,100.00
2024-05-09T19:23:05.924Z,100.00
2024-05-09T19:25:33.763Z,100.00
2024-05-09T19:28:01.199Z,100.00
2024-05-09T19:30:37.653Z,100.00
2024-05-09T19:33:08.949Z,100.00
2024-05-09T19:35:36.118Z,100.00
2024-05-09T19:38:03.101Z,100.00
2024-05-09T19:40:32.426Z,100.00
2024-05-09T19:43:02.669Z,100.00
2024-05-09T19:45:30.197Z,100.00
2024-05-09T19:47:57.532Z,100.00
2024-05-09T19:50:32.472Z,100.00
2024-05-09T19:53:07.335Z,100.00
2024-05-09T19:55:35.060Z,100.00
2024-05-09T19:58:05.431Z,100.00
2024-05-09T20:00:42.120Z,100.00
2024-05-09T20:03:13.166Z,100.00
2024-05-09T20:05:47.835Z,100.00
2024-05-09T20:08:15.072Z,100.00
2024-05-09T20:10:41.899Z,100.00
2024-05-09T20:13:09.111Z,100.00
2024-05-09T20:15:37.815Z,100.00
2024-05-09T20:18:05.978Z,100.00
2024-05-09T20:20:39.063Z,100.00
2024-05-09T20:23:11.524Z,100.00
2024-05-09T20:25:38.778Z,100.00
2024-05-09T20:28:08.943Z,100.00
2024-05-09T20:30:36.448Z,100.00
2024-05-09T20:33:07.082Z,100.00
2024-05-09T20:35:35.456Z,100.00
2024-05-09T20:38:03.223Z,100.00
2024-05-09T20:40:35.092Z,100.00
2024-05-09T20:43:06.212Z,100.00
2024-05-09T20:45:33.774Z,100.00
2024-05-09T20:48:01.068Z,100.00
2024-05-09T20:50:36.505Z,100.00
2024-05-09T20:53:13.421Z,100.00
2024-05-09T20:55:41.359Z,100.00
2024-05-09T20:58:09.205Z,100.00
2024-05-09T21:00:40.495Z,100.00
2024-05-09T21:03:12.621Z,100.00
2024-05-09T21:05:41.048Z,100.00
2024-05-09T21:08:08.159Z,100.00
2024-05-09T21:10:36.219Z,100.00
2024-05-09T21:13:04.136Z,100.00
2024-05-09T21:15:31.955Z,100.00
2024-05-09T21:17:59.281Z,100.00
2024-05-09T21:20:31.706Z,100.00
2024-05-09T21:23:00.845Z,100.00
2024-05-09T21:25:27.857Z,100.00
2024-05-09T21:27:55.023Z,100.00
2024-05-09T21:30:32.376Z,100.00
2024-05-09T21:33:14.572Z,100.00
2024-05-09T21:35:43.117Z,100.00
2024-05-09T21:38:10.349Z,100.00
2024-05-09T21:40:38.217Z,100.00
2024-05-09T21:43:07.524Z,100.00
2024-05-09T21:45:35.569Z,100.00
2024-05-09T21:48:06.991Z,100.00
2024-05-09T21:50:41.403Z,100.00
2024-05-09T21:53:14.237Z,100.00
2024-05-09T21:55:42.097Z,100.00
2024-05-09T21:58:23.845Z,100.00
2024-05-09T22:00:52.054Z,100.00
2024-05-09T22:03:19.331Z,100.00
2024-05-09T22:05:50.712Z,100.00
2024-05-09T22:08:22.095Z,100.00
2024-05-09T22:10:49.467Z,100.00
2024-05-09T22:13:22.247Z,100.00
2024-05-09T22:15:49.302Z,100.00
2024-05-09T22:18:16.128Z,100.00
2024-05-09T22:20:46.789Z,100.00
2024-05-09T22:23:15.206Z,100.00
2024-05-09T22:25:42.376Z,100.00
2024-05-09T22:28:09.745Z,100.00
2024-05-09T22:30:39.472Z,100.00
2024-05-09T22:33:09.099Z,100.00
2024-05-09T22:35:37.356Z,100.00
2024-05-09T22:38:04.292Z,100.00
2024-05-09T22:40:41.693Z,100.00
2024-05-09T22:43:16.652Z,100.00
2024-05-09T22:45:43.822Z,100.00
2024-05-09T22:48:10.762Z,100.00
2024-05-09T22:50:37.746Z,100.00
2024-05-09T22:53:05.636Z,100.00
2024-05-09T22:55:32.494Z,100.00
2024-05-09T22:58:02.308Z,100.00
2024-05-09T23:00:31.914Z,100.00
2024-05-09T23:03:02.275Z,100.00
2024-05-09T23:05:29.613Z,100.00
2024-05-09T23:07:56.804Z,100.00
2024-05-09T23:10:31.671Z,100.00
2024-05-09T23:13:03.354Z,100.00
2024-05-09T23:15:30.351Z,100.00
2024-05-09T23:17:58.766Z,100.00
2024-05-09T23:20:35.889Z,100.00
2024-05-09T23:23:06.778Z,100.00
2024-05-09T23:25:34.033Z,100.00
2024-05-09T23:28:01.019Z,100.00
2024-05-09T23:30:36.496Z,100.00
2024-05-09T23:33:06.669Z,100.00
2024-05-09T23:35:33.582Z,100.00
2024-05-09T23:38:00.438Z,100.00
2024-05-09T23:40:37.336Z,100.00
2024-05-09T23:43:07.520Z,100.00
2024-05-09T23:45:35.381Z,100.00
2024-05-09T23:48:03.036Z,100.00
2024-05-09T23:50:35.601Z,100.00
2024-05-09T23:53:09.343Z,100.00
2024-05-09T23:55:37.404Z,100.00
2024-05-09T23:58:04.730Z,100.00
